sensor_id;sensor_type;location;lat;lon;timestamp;P1;durP1;ratioP1;P2;durP2;ratioP2
26864;SDS011;40618;51.166;10.322;2022-10-16T00:01:15;1.00;;;0.60;;
26864;SDS011;40618;51.166;10.322;2022-10-16T00:03:45;2.50;;;0.70;;
26864;SDS011;40618;51.166;10.322;2022-10-16T00:06:12;0.60;;;0.60;;
26864;SDS011;40618;51.166;10.322;2022-10-16T00:08:39;2.05;;;0.60;;
26864;SDS011;40618;51.166;10.322;2022-10-16T00:13:45;1.10;;;0.40;;
26864;SDS011;40618;51.166;10.322;2022-10-16T00:16:13;0.75;;;0.60;;
26864;SDS011;40618;51.166;10.322;2022-10-16T00:18:39;0.90;;;0.90;;
26864;SDS011;40618;51.166;10.322;2022-10-16T00:21:06;1.50;;;0.57;;
26864;SDS011;40618;51.166;10.322;2022-10-16T00:23:38;0.73;;;0.60;;
26864;SDS011;40618;51.166;10.322;2022-10-16T00:26:06;0.60;;;0.50;;
26864;SDS011;40618;51.166;10.322;2022-10-16T00:28:36;3.42;;;0.63;;
26864;SDS011;40618;51.166;10.322;2022-10-16T00:31:02;0.75;;;0.60;;
26864;SDS011;40618;51.166;10.322;2022-10-16T00:33:34;0.77;;;0.60;;
26864;SDS011;40618;51.166;10.322;2022-10-16T00:36:01;1.17;;;0.60;;
26864;SDS011;40618;51.166;10.322;2022-10-16T00:38:29;0.52;;;0.50;;
26864;SDS011;40618;51.166;10.322;2022-10-16T00:40:55;1.15;;;0.70;;
26864;SDS011;40618;51.166;10.322;2022-10-16T00:46:19;1.00;;;0.77;;
26864;SDS011;40618;51.166;10.322;2022-10-16T00:48:52;2.20;;;0.55;;
26864;SDS011;40618;51.166;10.322;2022-10-16T00:51:47;3.05;;;0.82;;
26864;SDS011;40618;51.166;10.322;2022-10-16T00:54:21;0.85;;;0.70;;
26864;SDS011;40618;51.166;10.322;2022-10-16T00:56:51;0.80;;;0.63;;
26864;SDS011;40618;51.166;10.322;2022-10-16T00:59:28;1.95;;;1.25;;
26864;SDS011;40618;51.166;10.322;2022-10-16T01:02:02;2.80;;;0.70;;
26864;SDS011;40618;51.166;10.322;2022-10-16T01:04:32;0.80;;;0.80;;
26864;SDS011;40618;51.166;10.322;2022-10-16T01:07:15;1.33;;;1.00;;
26864;SDS011;40618;51.166;10.322;2022-10-16T01:10:07;1.38;;;0.63;;
26864;SDS011;40618;51.166;10.322;2022-10-16T01:13:24;1.02;;;0.80;;
26864;SDS011;40618;51.166;10.322;2022-10-16T01:16:01;1.30;;;0.70;;
26864;SDS011;40618;51.166;10.322;2022-10-16T01:21:29;0.75;;;0.70;;
26864;SDS011;40618;51.166;10.322;2022-10-16T01:29:46;1.70;;;0.80;;
26864;SDS011;40618;51.166;10.322;2022-10-16T01:32:22;1.52;;;0.82;;
26864;SDS011;40618;51.166;10.322;2022-10-16T01:35:14;2.58;;;0.60;;
26864;SDS011;40618;51.166;10.322;2022-10-16T01:38:12;4.20;;;0.80;;
26864;SDS011;40618;51.166;10.322;2022-10-16T01:40:49;0.75;;;0.75;;
26864;SDS011;40618;51.166;10.322;2022-10-16T01:43:26;3.25;;;1.02;;
26864;SDS011;40618;51.166;10.322;2022-10-16T01:46:00;1.55;;;0.68;;
26864;SDS011;40618;51.166;10.322;2022-10-16T01:48:27;0.90;;;0.80;;
26864;SDS011;40618;51.166;10.322;2022-10-16T01:53:53;1.65;;;1.00;;
26864;SDS011;40618;51.166;10.322;2022-10-16T01:56:23;4.97;;;0.80;;
26864;SDS011;40618;51.166;10.322;2022-10-16T01:58:53;1.13;;;0.70;;
26864;SDS011;40618;51.166;10.322;2022-10-16T02:01:28;1.02;;;0.77;;
26864;SDS011;40618;51.166;10.322;2022-10-16T02:06:29;0.75;;;0.70;;
26864;SDS011;40618;51.166;10.322;2022-10-16T02:08:55;0.65;;;0.60;;
26864;SDS011;40618;51.166;10.322;2022-10-16T02:11:20;4.07;;;0.80;;
26864;SDS011;40618;51.166;10.322;2022-10-16T02:13:46;3.70;;;0.80;;
26864;SDS011;40618;51.166;10.322;2022-10-16T02:16:18;1.98;;;0.70;;
26864;SDS011;40618;51.166;10.322;2022-10-16T02:18:44;2.70;;;0.80;;
26864;SDS011;40618;51.166;10.322;2022-10-16T02:24:00;1.40;;;0.70;;
26864;SDS011;40618;51.166;10.322;2022-10-16T02:26:48;0.73;;;0.73;;
26864;SDS011;40618;51.166;10.322;2022-10-16T02:29:22;0.75;;;0.60;;
26864;SDS011;40618;51.166;10.322;2022-10-16T02:31:52;0.63;;;0.63;;
26864;SDS011;40618;51.166;10.322;2022-10-16T02:34:24;0.50;;;0.50;;
26864;SDS011;40618;51.166;10.322;2022-10-16T02:36:51;0.57;;;0.57;;
26864;SDS011;40618;51.166;10.322;2022-10-16T02:39:18;0.90;;;0.60;;
26864;SDS011;40618;51.166;10.322;2022-10-16T02:41:45;0.68;;;0.68;;
26864;SDS011;40618;51.166;10.322;2022-10-16T02:44:11;1.38;;;0.80;;
26864;SDS011;40618;51.166;10.322;2022-10-16T02:46:36;7.25;;;0.63;;
26864;SDS011;40618;51.166;10.322;2022-10-16T02:49:02;1.15;;;0.88;;
26864;SDS011;40618;51.166;10.322;2022-10-16T02:51:27;1.38;;;0.85;;
26864;SDS011;40618;51.166;10.322;2022-10-16T02:53:53;0.90;;;0.77;;
26864;SDS011;40618;51.166;10.322;2022-10-16T02:56:19;1.00;;;0.90;;
26864;SDS011;40618;51.166;10.322;2022-10-16T02:58:45;0.63;;;0.57;;
26864;SDS011;40618;51.166;10.322;2022-10-16T03:01:10;1.02;;;0.65;;
26864;SDS011;40618;51.166;10.322;2022-10-16T03:03:37;3.65;;;0.68;;
26864;SDS011;40618;51.166;10.322;2022-10-16T03:06:03;2.10;;;0.93;;
26864;SDS011;40618;51.166;10.322;2022-10-16T03:08:29;0.70;;;0.60;;
26864;SDS011;40618;51.166;10.322;2022-10-16T03:10:55;0.68;;;0.60;;
26864;SDS011;40618;51.166;10.322;2022-10-16T03:13:20;2.20;;;0.85;;
26864;SDS011;40618;51.166;10.322;2022-10-16T03:15:46;4.50;;;0.70;;
26864;SDS011;40618;51.166;10.322;2022-10-16T03:18:12;2.90;;;1.35;;
26864;SDS011;40618;51.166;10.322;2022-10-16T03:20:37;2.33;;;0.80;;
26864;SDS011;40618;51.166;10.322;2022-10-16T03:23:03;7.28;;;0.90;;
26864;SDS011;40618;51.166;10.322;2022-10-16T03:25:29;0.82;;;0.60;;
26864;SDS011;40618;51.166;10.322;2022-10-16T03:27:54;0.70;;;0.70;;
26864;SDS011;40618;51.166;10.322;2022-10-16T03:30:20;1.00;;;0.70;;
26864;SDS011;40618;51.166;10.322;2022-10-16T03:32:45;1.92;;;1.00;;
26864;SDS011;40618;51.166;10.322;2022-10-16T03:35:11;1.05;;;0.70;;
26864;SDS011;40618;51.166;10.322;2022-10-16T03:37:37;0.88;;;0.80;;
26864;SDS011;40618;51.166;10.322;2022-10-16T03:40:03;2.78;;;1.10;;
26864;SDS011;40618;51.166;10.322;2022-10-16T03:42:30;1.95;;;1.25;;
26864;SDS011;40618;51.166;10.322;2022-10-16T03:44:55;1.02;;;0.80;;
26864;SDS011;40618;51.166;10.322;2022-10-16T03:47:21;1.88;;;1.05;;
26864;SDS011;40618;51.166;10.322;2022-10-16T03:49:48;5.18;;;1.60;;
26864;SDS011;40618;51.166;10.322;2022-10-16T03:52:15;1.67;;;1.10;;
26864;SDS011;40618;51.166;10.322;2022-10-16T03:54:41;1.00;;;0.80;;
26864;SDS011;40618;51.166;10.322;2022-10-16T03:57:06;3.55;;;1.10;;
26864;SDS011;40618;51.166;10.322;2022-10-16T03:59:32;0.70;;;0.70;;
26864;SDS011;40618;51.166;10.322;2022-10-16T04:01:57;0.90;;;0.63;;
26864;SDS011;40618;51.166;10.322;2022-10-16T04:04:23;1.02;;;0.93;;
26864;SDS011;40618;51.166;10.322;2022-10-16T04:06:49;1.20;;;0.93;;
26864;SDS011;40618;51.166;10.322;2022-10-16T04:09:15;1.10;;;0.95;;
26864;SDS011;40618;51.166;10.322;2022-10-16T04:11:41;4.28;;;1.27;;
26864;SDS011;40618;51.166;10.322;2022-10-16T04:14:06;1.38;;;1.20;;
26864;SDS011;40618;51.166;10.322;2022-10-16T04:16:32;1.48;;;0.93;;
26864;SDS011;40618;51.166;10.322;2022-10-16T04:18:57;2.55;;;1.05;;
26864;SDS011;40618;51.166;10.322;2022-10-16T04:21:23;1.13;;;1.10;;
26864;SDS011;40618;51.166;10.322;2022-10-16T04:23:48;2.42;;;1.02;;
26864;SDS011;40618;51.166;10.322;2022-10-16T04:26:14;4.78;;;1.05;;
26864;SDS011;40618;51.166;10.322;2022-10-16T04:28:40;1.52;;;1.20;;
26864;SDS011;40618;51.166;10.322;2022-10-16T04:31:05;2.15;;;1.10;;
26864;SDS011;40618;51.166;10.322;2022-10-16T04:33:32;1.65;;;1.08;;
26864;SDS011;40618;51.166;10.322;2022-10-16T04:35:58;1.17;;;1.00;;
26864;SDS011;40618;51.166;10.322;2022-10-16T04:38:26;2.00;;;1.00;;
26864;SDS011;40618;51.166;10.322;2022-10-16T04:40:52;3.67;;;1.10;;
26864;SDS011;40618;51.166;10.322;2022-10-16T04:43:18;1.10;;;0.98;;
26864;SDS011;40618;51.166;10.322;2022-10-16T04:45:44;1.60;;;1.10;;
26864;SDS011;40618;51.166;10.322;2022-10-16T04:48:09;2.53;;;0.88;;
26864;SDS011;40618;51.166;10.322;2022-10-16T04:50:35;0.90;;;0.90;;
26864;SDS011;40618;51.166;10.322;2022-10-16T04:53:01;7.05;;;1.27;;
26864;SDS011;40618;51.166;10.322;2022-10-16T04:55:27;2.25;;;1.20;;
26864;SDS011;40618;51.166;10.322;2022-10-16T04:57:52;0.98;;;0.80;;
26864;SDS011;40618;51.166;10.322;2022-10-16T05:00:18;3.95;;;1.20;;
26864;SDS011;40618;51.166;10.322;2022-10-16T05:02:43;1.20;;;1.10;;
26864;SDS011;40618;51.166;10.322;2022-10-16T05:05:09;1.05;;;0.70;;
26864;SDS011;40618;51.166;10.322;2022-10-16T05:07:35;0.90;;;0.90;;
26864;SDS011;40618;51.166;10.322;2022-10-16T05:10:00;0.93;;;0.70;;
26864;SDS011;40618;51.166;10.322;2022-10-16T05:12:26;2.60;;;0.85;;
26864;SDS011;40618;51.166;10.322;2022-10-16T05:14:51;1.50;;;1.00;;
26864;SDS011;40618;51.166;10.322;2022-10-16T05:17:17;3.28;;;0.80;;
26864;SDS011;40618;51.166;10.322;2022-10-16T05:19:42;0.70;;;0.60;;
26864;SDS011;40618;51.166;10.322;2022-10-16T05:22:08;2.30;;;0.60;;
26864;SDS011;40618;51.166;10.322;2022-10-16T05:24:33;1.23;;;0.82;;
26864;SDS011;40618;51.166;10.322;2022-10-16T05:26:59;7.32;;;1.10;;
26864;SDS011;40618;51.166;10.322;2022-10-16T05:29:24;0.93;;;0.80;;
26864;SDS011;40618;51.166;10.322;2022-10-16T05:31:51;0.85;;;0.80;;
26864;SDS011;40618;51.166;10.322;2022-10-16T05:34:18;1.45;;;0.65;;
26864;SDS011;40618;51.166;10.322;2022-10-16T05:36:45;0.90;;;0.90;;
26864;SDS011;40618;51.166;10.322;2022-10-16T05:39:11;1.95;;;0.98;;
26864;SDS011;40618;51.166;10.322;2022-10-16T05:41:38;1.15;;;0.90;;
26864;SDS011;40618;51.166;10.322;2022-10-16T05:44:04;2.13;;;0.93;;
26864;SDS011;40618;51.166;10.322;2022-10-16T05:46:30;1.60;;;1.42;;
26864;SDS011;40618;51.166;10.322;2022-10-16T05:48:57;1.23;;;1.00;;
26864;SDS011;40618;51.166;10.322;2022-10-16T05:51:23;1.55;;;1.38;;
26864;SDS011;40618;51.166;10.322;2022-10-16T05:53:48;1.00;;;0.95;;
26864;SDS011;40618;51.166;10.322;2022-10-16T05:56:14;1.52;;;1.42;;
26864;SDS011;40618;51.166;10.322;2022-10-16T05:58:40;3.10;;;1.52;;
26864;SDS011;40618;51.166;10.322;2022-10-16T06:01:08;2.90;;;1.90;;
26864;SDS011;40618;51.166;10.322;2022-10-16T06:03:37;3.85;;;2.17;;
26864;SDS011;40618;51.166;10.322;2022-10-16T06:06:10;2.22;;;1.88;;
26864;SDS011;40618;51.166;10.322;2022-10-16T06:08:39;2.83;;;1.70;;
26864;SDS011;40618;51.166;10.322;2022-10-16T06:11:07;1.42;;;1.30;;
26864;SDS011;40618;51.166;10.322;2022-10-16T06:13:36;1.20;;;1.10;;
26864;SDS011;40618;51.166;10.322;2022-10-16T06:16:02;2.97;;;1.13;;
26864;SDS011;40618;51.166;10.322;2022-10-16T06:18:29;0.98;;;0.90;;
26864;SDS011;40618;51.166;10.322;2022-10-16T06:20:55;2.75;;;1.15;;
26864;SDS011;40618;51.166;10.322;2022-10-16T06:23:23;3.30;;;0.90;;
26864;SDS011;40618;51.166;10.322;2022-10-16T06:25:48;1.30;;;0.98;;
26864;SDS011;40618;51.166;10.322;2022-10-16T06:28:14;3.75;;;0.85;;
26864;SDS011;40618;51.166;10.322;2022-10-16T06:30:41;1.20;;;0.80;;
26864;SDS011;40618;51.166;10.322;2022-10-16T06:33:08;1.45;;;0.70;;
26864;SDS011;40618;51.166;10.322;2022-10-16T06:35:35;0.77;;;0.77;;
26864;SDS011;40618;51.166;10.322;2022-10-16T06:38:01;0.70;;;0.70;;
26864;SDS011;40618;51.166;10.322;2022-10-16T06:40:26;1.27;;;0.65;;
26864;SDS011;40618;51.166;10.322;2022-10-16T06:42:54;0.77;;;0.77;;
26864;SDS011;40618;51.166;10.322;2022-10-16T06:45:20;2.50;;;0.70;;
26864;SDS011;40618;51.166;10.322;2022-10-16T06:47:46;0.55;;;0.55;;
26864;SDS011;40618;51.166;10.322;2022-10-16T06:50:11;3.60;;;0.90;;
26864;SDS011;40618;51.166;10.322;2022-10-16T06:52:37;0.90;;;0.65;;
26864;SDS011;40618;51.166;10.322;2022-10-16T06:55:02;0.70;;;0.60;;
26864;SDS011;40618;51.166;10.322;2022-10-16T06:57:28;1.05;;;0.95;;
26864;SDS011;40618;51.166;10.322;2022-10-16T06:59:54;2.42;;;0.80;;
26864;SDS011;40618;51.166;10.322;2022-10-16T07:02:19;1.00;;;0.63;;
26864;SDS011;40618;51.166;10.322;2022-10-16T07:04:45;2.03;;;0.50;;
26864;SDS011;40618;51.166;10.322;2022-10-16T07:07:10;4.93;;;1.50;;
26864;SDS011;40618;51.166;10.322;2022-10-16T07:09:36;3.15;;;1.63;;
26864;SDS011;40618;51.166;10.322;2022-10-16T07:12:02;2.05;;;1.02;;
26864;SDS011;40618;51.166;10.322;2022-10-16T07:14:27;2.03;;;0.90;;
26864;SDS011;40618;51.166;10.322;2022-10-16T07:16:54;2.60;;;0.90;;
26864;SDS011;40618;51.166;10.322;2022-10-16T07:19:20;0.50;;;0.50;;
26864;SDS011;40618;51.166;10.322;2022-10-16T07:21:46;0.47;;;0.47;;
26864;SDS011;40618;51.166;10.322;2022-10-16T07:24:15;0.43;;;0.43;;
26864;SDS011;40618;51.166;10.322;2022-10-16T07:26:42;0.40;;;0.40;;
26864;SDS011;40618;51.166;10.322;2022-10-16T07:29:14;1.60;;;1.00;;
26864;SDS011;40618;51.166;10.322;2022-10-16T07:31:43;0.52;;;0.52;;
26864;SDS011;40618;51.166;10.322;2022-10-16T07:34:10;0.70;;;0.50;;
26864;SDS011;40618;51.166;10.322;2022-10-16T07:36:38;1.33;;;0.57;;
26864;SDS011;40618;51.166;10.322;2022-10-16T07:39:04;2.63;;;1.02;;
26864;SDS011;40618;51.166;10.322;2022-10-16T07:41:30;0.60;;;0.50;;
26864;SDS011;40618;51.166;10.322;2022-10-16T07:43:57;0.60;;;0.60;;
26864;SDS011;40618;51.166;10.322;2022-10-16T07:46:27;1.25;;;0.57;;
26864;SDS011;40618;51.166;10.322;2022-10-16T07:48:53;4.38;;;0.60;;
26864;SDS011;40618;51.166;10.322;2022-10-16T07:51:21;0.95;;;0.55;;
26864;SDS011;40618;51.166;10.322;2022-10-16T07:53:49;0.80;;;0.40;;
26864;SDS011;40618;51.166;10.322;2022-10-16T07:56:17;0.80;;;0.50;;
26864;SDS011;40618;51.166;10.322;2022-10-16T07:58:46;0.60;;;0.50;;
26864;SDS011;40618;51.166;10.322;2022-10-16T08:01:14;2.08;;;0.70;;
26864;SDS011;40618;51.166;10.322;2022-10-16T08:03:42;0.70;;;0.70;;
26864;SDS011;40618;51.166;10.322;2022-10-16T08:06:13;0.82;;;0.60;;
26864;SDS011;40618;51.166;10.322;2022-10-16T08:08:39;1.85;;;0.73;;
26864;SDS011;40618;51.166;10.322;2022-10-16T08:11:05;2.72;;;0.90;;
26864;SDS011;40618;51.166;10.322;2022-10-16T08:13:31;0.60;;;0.60;;
26864;SDS011;40618;51.166;10.322;2022-10-16T08:15:57;1.48;;;0.47;;
26864;SDS011;40618;51.166;10.322;2022-10-16T08:18:23;3.17;;;0.70;;
26864;SDS011;40618;51.166;10.322;2022-10-16T08:20:54;2.92;;;0.65;;
26864;SDS011;40618;51.166;10.322;2022-10-16T08:23:23;0.80;;;0.47;;
26864;SDS011;40618;51.166;10.322;2022-10-16T08:25:50;0.57;;;0.55;;
26864;SDS011;40618;51.166;10.322;2022-10-16T08:28:18;1.27;;;1.05;;
26864;SDS011;40618;51.166;10.322;2022-10-16T08:30:45;1.48;;;0.55;;
26864;SDS011;40618;51.166;10.322;2022-10-16T08:33:10;0.40;;;0.40;;
26864;SDS011;40618;51.166;10.322;2022-10-16T08:35:36;0.80;;;0.50;;
26864;SDS011;40618;51.166;10.322;2022-10-16T08:38:03;1.35;;;0.60;;
26864;SDS011;40618;51.166;10.322;2022-10-16T08:40:32;1.30;;;0.75;;
26864;SDS011;40618;51.166;10.322;2022-10-16T08:43:07;0.65;;;0.57;;
26864;SDS011;40618;51.166;10.322;2022-10-16T08:45:51;0.93;;;0.60;;
26864;SDS011;40618;51.166;10.322;2022-10-16T08:48:47;1.23;;;0.63;;
26864;SDS011;40618;51.166;10.322;2022-10-16T08:51:20;1.95;;;0.68;;
26864;SDS011;40618;51.166;10.322;2022-10-16T08:53:59;2.38;;;0.60;;
26864;SDS011;40618;51.166;10.322;2022-10-16T08:56:30;1.35;;;1.13;;
26864;SDS011;40618;51.166;10.322;2022-10-16T08:58:57;1.08;;;0.70;;
26864;SDS011;40618;51.166;10.322;2022-10-16T09:01:24;0.70;;;0.50;;
26864;SDS011;40618;51.166;10.322;2022-10-16T09:10:15;1.05;;;0.63;;
26864;SDS011;40618;51.166;10.322;2022-10-16T09:15:58;0.90;;;0.60;;
26864;SDS011;40618;51.166;10.322;2022-10-16T09:21:32;0.55;;;0.32;;
26864;SDS011;40618;51.166;10.322;2022-10-16T09:24:24;0.82;;;0.60;;
26864;SDS011;40618;51.166;10.322;2022-10-16T09:26:51;2.50;;;0.50;;
26864;SDS011;40618;51.166;10.322;2022-10-16T09:29:18;0.80;;;0.40;;
26864;SDS011;40618;51.166;10.322;2022-10-16T09:31:46;0.47;;;0.47;;
26864;SDS011;40618;51.166;10.322;2022-10-16T09:34:32;0.70;;;0.40;;
26864;SDS011;40618;51.166;10.322;2022-10-16T09:37:04;0.77;;;0.60;;
26864;SDS011;40618;51.166;10.322;2022-10-16T09:39:46;0.50;;;0.40;;
26864;SDS011;40618;51.166;10.322;2022-10-16T09:42:14;0.98;;;0.77;;
26864;SDS011;40618;51.166;10.322;2022-10-16T09:44:50;0.90;;;0.63;;
26864;SDS011;40618;51.166;10.322;2022-10-16T09:47:19;1.00;;;0.52;;
26864;SDS011;40618;51.166;10.322;2022-10-16T09:49:55;1.02;;;0.82;;
26864;SDS011;40618;51.166;10.322;2022-10-16T09:52:25;0.63;;;0.50;;
26864;SDS011;40618;51.166;10.322;2022-10-16T09:54:51;1.92;;;0.50;;
26864;SDS011;40618;51.166;10.322;2022-10-16T09:57:25;2.72;;;0.32;;
26864;SDS011;40618;51.166;10.322;2022-10-16T09:59:56;2.20;;;0.30;;
26864;SDS011;40618;51.166;10.322;2022-10-16T10:02:28;0.45;;;0.28;;
26864;SDS011;40618;51.166;10.322;2022-10-16T10:04:59;0.75;;;0.50;;
26864;SDS011;40618;51.166;10.322;2022-10-16T10:07:27;2.15;;;0.90;;
26864;SDS011;40618;51.166;10.322;2022-10-16T10:09:59;0.80;;;0.60;;
26864;SDS011;40618;51.166;10.322;2022-10-16T10:12:30;0.60;;;0.60;;
26864;SDS011;40618;51.166;10.322;2022-10-16T10:15:04;1.10;;;0.57;;
26864;SDS011;40618;51.166;10.322;2022-10-16T10:17:44;0.50;;;0.35;;
26864;SDS011;40618;51.166;10.322;2022-10-16T10:20:25;0.40;;;0.40;;
26864;SDS011;40618;51.166;10.322;2022-10-16T10:22:56;0.63;;;0.52;;
26864;SDS011;40618;51.166;10.322;2022-10-16T10:28:23;0.47;;;0.40;;
26864;SDS011;40618;51.166;10.322;2022-10-16T10:31:17;1.35;;;0.70;;
26864;SDS011;40618;51.166;10.322;2022-10-16T10:33:58;2.85;;;0.55;;
26864;SDS011;40618;51.166;10.322;2022-10-16T10:36:38;0.93;;;0.57;;
26864;SDS011;40618;51.166;10.322;2022-10-16T10:44:52;1.70;;;1.15;;
26864;SDS011;40618;51.166;10.322;2022-10-16T11:05:46;3.70;;;0.98;;
26864;SDS011;40618;51.166;10.322;2022-10-16T11:11:07;0.52;;;0.40;;
26864;SDS011;40618;51.166;10.322;2022-10-16T11:16:56;0.90;;;0.50;;
26864;SDS011;40618;51.166;10.322;2022-10-16T11:27:56;0.50;;;0.50;;
26864;SDS011;40618;51.166;10.322;2022-10-16T11:30:45;1.75;;;0.30;;
26864;SDS011;40618;51.166;10.322;2022-10-16T11:39:08;0.50;;;0.43;;
26864;SDS011;40618;51.166;10.322;2022-10-16T11:41:52;0.60;;;0.40;;
26864;SDS011;40618;51.166;10.322;2022-10-16T11:50:11;0.40;;;0.30;;
26864;SDS011;40618;51.166;10.322;2022-10-16T11:53:16;0.32;;;0.30;;
26864;SDS011;40618;51.166;10.322;2022-10-16T11:56:11;0.93;;;0.30;;
26864;SDS011;40618;51.166;10.322;2022-10-16T11:59:05;0.30;;;0.30;;
26864;SDS011;40618;51.166;10.322;2022-10-16T12:02:24;0.30;;;0.30;;
26864;SDS011;40618;51.166;10.322;2022-10-16T12:05:14;0.85;;;0.40;;
26864;SDS011;40618;51.166;10.322;2022-10-16T12:08:17;0.80;;;0.20;;
26864;SDS011;40618;51.166;10.322;2022-10-16T12:10:45;0.60;;;0.30;;
26864;SDS011;40618;51.166;10.322;2022-10-16T12:16:04;1.25;;;0.28;;
26864;SDS011;40618;51.166;10.322;2022-10-16T12:18:33;0.30;;;0.30;;
26864;SDS011;40618;51.166;10.322;2022-10-16T12:20:59;0.50;;;0.43;;
26864;SDS011;40618;51.166;10.322;2022-10-16T12:23:39;0.55;;;0.40;;
26864;SDS011;40618;51.166;10.322;2022-10-16T12:26:22;1.13;;;0.30;;
26864;SDS011;40618;51.166;10.322;2022-10-16T12:28:54;1.65;;;0.52;;
26864;SDS011;40618;51.166;10.322;2022-10-16T12:31:21;0.35;;;0.35;;
26864;SDS011;40618;51.166;10.322;2022-10-16T12:34:06;1.75;;;0.35;;
26864;SDS011;40618;51.166;10.322;2022-10-16T12:36:48;0.20;;;0.20;;
26864;SDS011;40618;51.166;10.322;2022-10-16T12:39:21;0.65;;;0.52;;
26864;SDS011;40618;51.166;10.322;2022-10-16T12:42:03;1.45;;;0.47;;
26864;SDS011;40618;51.166;10.322;2022-10-16T12:44:45;1.02;;;0.40;;
26864;SDS011;40618;51.166;10.322;2022-10-16T12:47:20;1.85;;;1.02;;
26864;SDS011;40618;51.166;10.322;2022-10-16T12:50:01;1.35;;;0.85;;
26864;SDS011;40618;51.166;10.322;2022-10-16T12:54:58;0.85;;;0.32;;
26864;SDS011;40618;51.166;10.322;2022-10-16T12:59:57;0.20;;;0.20;;
26864;SDS011;40618;51.166;10.322;2022-10-16T13:05:51;0.75;;;0.50;;
26864;SDS011;40618;51.166;10.322;2022-10-16T13:25:59;1.38;;;0.70;;
26864;SDS011;40618;51.166;10.322;2022-10-16T13:28:43;1.10;;;0.65;;
26864;SDS011;40618;51.166;10.322;2022-10-16T13:31:13;2.28;;;0.70;;
26864;SDS011;40618;51.166;10.322;2022-10-16T13:33:48;0.95;;;0.68;;
26864;SDS011;40618;51.166;10.322;2022-10-16T13:36:23;1.98;;;0.50;;
26864;SDS011;40618;51.166;10.322;2022-10-16T13:39:10;2.08;;;1.20;;
26864;SDS011;40618;51.166;10.322;2022-10-16T13:41:38;0.55;;;0.50;;
26864;SDS011;40618;51.166;10.322;2022-10-16T13:44:04;1.15;;;0.90;;
26864;SDS011;40618;51.166;10.322;2022-10-16T13:46:36;0.50;;;0.40;;
26864;SDS011;40618;51.166;10.322;2022-10-16T13:49:06;0.85;;;0.50;;
26864;SDS011;40618;51.166;10.322;2022-10-16T13:54:23;1.30;;;0.73;;
26864;SDS011;40618;51.166;10.322;2022-10-16T13:56:50;1.33;;;0.85;;
26864;SDS011;40618;51.166;10.322;2022-10-16T13:59:23;1.98;;;1.42;;
26864;SDS011;40618;51.166;10.322;2022-10-16T14:02:54;1.20;;;0.57;;
26864;SDS011;40618;51.166;10.322;2022-10-16T14:05:01;1.17;;;0.73;;
26864;SDS011;40618;51.166;10.322;2022-10-16T14:07:30;0.80;;;0.50;;
26864;SDS011;40618;51.166;10.322;2022-10-16T14:10:03;0.88;;;0.38;;
26864;SDS011;40618;51.166;10.322;2022-10-16T14:12:33;7.20;;;1.90;;
26864;SDS011;40618;51.166;10.322;2022-10-16T14:14:59;2.90;;;1.00;;
26864;SDS011;40618;51.166;10.322;2022-10-16T14:17:35;2.70;;;1.33;;
26864;SDS011;40618;51.166;10.322;2022-10-16T14:20:02;1.92;;;0.95;;
26864;SDS011;40618;51.166;10.322;2022-10-16T14:22:32;3.08;;;1.33;;
26864;SDS011;40618;51.166;10.322;2022-10-16T14:25:19;4.75;;;1.98;;
26864;SDS011;40618;51.166;10.322;2022-10-16T14:30:56;1.73;;;1.20;;
26864;SDS011;40618;51.166;10.322;2022-10-16T14:33:31;3.45;;;2.42;;
26864;SDS011;40618;51.166;10.322;2022-10-16T14:36:00;3.70;;;2.33;;
26864;SDS011;40618;51.166;10.322;2022-10-16T14:38:26;3.10;;;2.17;;
26864;SDS011;40618;51.166;10.322;2022-10-16T14:40:52;2.22;;;1.55;;
26864;SDS011;40618;51.166;10.322;2022-10-16T14:43:21;1.45;;;0.95;;
26864;SDS011;40618;51.166;10.322;2022-10-16T14:45:59;1.17;;;0.90;;
26864;SDS011;40618;51.166;10.322;2022-10-16T14:48:29;1.08;;;0.57;;
26864;SDS011;40618;51.166;10.322;2022-10-16T14:50:55;1.05;;;0.70;;
26864;SDS011;40618;51.166;10.322;2022-10-16T14:53:21;2.03;;;1.40;;
26864;SDS011;40618;51.166;10.322;2022-10-16T14:55:47;2.65;;;1.70;;
26864;SDS011;40618;51.166;10.322;2022-10-16T14:58:20;1.73;;;1.30;;
26864;SDS011;40618;51.166;10.322;2022-10-16T15:00:48;1.38;;;0.90;;
26864;SDS011;40618;51.166;10.322;2022-10-16T15:03:14;2.55;;;1.52;;
26864;SDS011;40618;51.166;10.322;2022-10-16T15:05:40;2.00;;;1.45;;
26864;SDS011;40618;51.166;10.322;2022-10-16T15:08:06;2.35;;;1.98;;
26864;SDS011;40618;51.166;10.322;2022-10-16T15:10:33;1.75;;;1.25;;
26864;SDS011;40618;51.166;10.322;2022-10-16T15:13:06;13.35;;;4.68;;
26864;SDS011;40618;51.166;10.322;2022-10-16T15:15:35;10.88;;;5.22;;
26864;SDS011;40618;51.166;10.322;2022-10-16T15:18:05;11.48;;;5.38;;
26864;SDS011;40618;51.166;10.322;2022-10-16T15:20:32;18.98;;;8.93;;
26864;SDS011;40618;51.166;10.322;2022-10-16T15:23:01;8.27;;;3.80;;
26864;SDS011;40618;51.166;10.322;2022-10-16T15:28:08;11.65;;;6.35;;
26864;SDS011;40618;51.166;10.322;2022-10-16T15:30:36;7.32;;;4.55;;
26864;SDS011;40618;51.166;10.322;2022-10-16T15:33:02;7.13;;;2.60;;
26864;SDS011;40618;51.166;10.322;2022-10-16T15:35:29;1.90;;;1.20;;
26864;SDS011;40618;51.166;10.322;2022-10-16T15:37:55;1.10;;;0.93;;
26864;SDS011;40618;51.166;10.322;2022-10-16T15:40:21;5.05;;;1.30;;
26864;SDS011;40618;51.166;10.322;2022-10-16T15:42:48;5.55;;;1.52;;
26864;SDS011;40618;51.166;10.322;2022-10-16T15:45:14;5.32;;;2.20;;
26864;SDS011;40618;51.166;10.322;2022-10-16T15:47:44;5.97;;;2.10;;
26864;SDS011;40618;51.166;10.322;2022-10-16T15:50:10;3.85;;;1.50;;
26864;SDS011;40618;51.166;10.322;2022-10-16T15:52:39;2.97;;;1.70;;
26864;SDS011;40618;51.166;10.322;2022-10-16T15:55:06;3.92;;;1.88;;
26864;SDS011;40618;51.166;10.322;2022-10-16T15:57:34;2.03;;;1.70;;
26864;SDS011;40618;51.166;10.322;2022-10-16T16:00:03;2.78;;;1.27;;
26864;SDS011;40618;51.166;10.322;2022-10-16T16:02:38;6.10;;;4.10;;
26864;SDS011;40618;51.166;10.322;2022-10-16T16:05:04;3.40;;;2.15;;
26864;SDS011;40618;51.166;10.322;2022-10-16T16:07:33;1.70;;;1.23;;
26864;SDS011;40618;51.166;10.322;2022-10-16T16:10:00;2.28;;;1.10;;
26864;SDS011;40618;51.166;10.322;2022-10-16T16:12:29;0.82;;;0.82;;
26864;SDS011;40618;51.166;10.322;2022-10-16T16:14:54;2.15;;;0.73;;
26864;SDS011;40618;51.166;10.322;2022-10-16T16:17:20;1.48;;;1.10;;
26864;SDS011;40618;51.166;10.322;2022-10-16T16:19:46;1.63;;;1.52;;
26864;SDS011;40618;51.166;10.322;2022-10-16T16:22:12;2.53;;;2.33;;
26864;SDS011;40618;51.166;10.322;2022-10-16T16:24:37;2.83;;;1.50;;
26864;SDS011;40618;51.166;10.322;2022-10-16T16:27:03;3.70;;;1.17;;
26864;SDS011;40618;51.166;10.322;2022-10-16T16:29:29;0.98;;;0.90;;
26864;SDS011;40618;51.166;10.322;2022-10-16T16:31:54;3.70;;;1.00;;
26864;SDS011;40618;51.166;10.322;2022-10-16T16:34:25;1.35;;;1.10;;
26864;SDS011;40618;51.166;10.322;2022-10-16T16:36:52;0.82;;;0.80;;
26864;SDS011;40618;51.166;10.322;2022-10-16T16:39:19;1.10;;;0.68;;
26864;SDS011;40618;51.166;10.322;2022-10-16T16:41:45;7.63;;;1.65;;
26864;SDS011;40618;51.166;10.322;2022-10-16T16:44:11;2.22;;;1.63;;
26864;SDS011;40618;51.166;10.322;2022-10-16T16:46:37;3.65;;;2.55;;
26864;SDS011;40618;51.166;10.322;2022-10-16T16:49:04;3.50;;;2.30;;
26864;SDS011;40618;51.166;10.322;2022-10-16T16:51:31;3.63;;;2.35;;
26864;SDS011;40618;51.166;10.322;2022-10-16T16:53:57;7.32;;;3.83;;
26864;SDS011;40618;51.166;10.322;2022-10-16T16:56:24;4.40;;;3.13;;